sensor_id;sensor_type;location;lat;lon;timestamp;temperature;humidity
1351;DHT22;669;50.206;9.998;2023-12-22T00:01:41;3.70;30.70
1351;DHT22;669;50.206;9.998;2023-12-22T00:04:10;3.60;30.90
1351;DHT22;669;50.206;9.998;2023-12-22T00:06:40;3.60;31.00
1351;DHT22;669;50.206;9.998;2023-12-22T00:09:08;3.60;31.50
1351;DHT22;669;50.206;9.998;2023-12-22T00:11:36;3.60;32.10
1351;DHT22;669;50.206;9.998;2023-12-22T00:14:04;3.60;32.40
1351;DHT22;669;50.206;9.998;2023-12-22T00:16:32;3.60;32.90
1351;DHT22;669;50.206;9.998;2023-12-22T00:19:00;3.60;33.90
1351;DHT22;669;50.206;9.998;2023-12-22T00:21:29;3.60;34.90
1351;DHT22;669;50.206;9.998;2023-12-22T00:23:58;3.60;35.60
1351;DHT22;669;50.206;9.998;2023-12-22T00:26:26;3.60;36.10
1351;DHT22;669;50.206;9.998;2023-12-22T00:28:54;3.60;36.10
1351;DHT22;669;50.206;9.998;2023-12-22T00:31:22;3.60;36.10
1351;DHT22;669;50.206;9.998;2023-12-22T00:33:50;3.70;36.40
1351;DHT22;669;50.206;9.998;2023-12-22T00:36:18;3.60;36.50
1351;DHT22;669;50.206;9.998;2023-12-22T00:38:51;3.60;36.80
1351;DHT22;669;50.206;9.998;2023-12-22T00:41:18;3.60;36.90
1351;DHT22;669;50.206;9.998;2023-12-22T00:43:46;3.60;36.90
1351;DHT22;669;50.206;9.998;2023-12-22T00:46:14;3.60;36.80
1351;DHT22;669;50.206;9.998;2023-12-22T00:48:42;3.60;36.80
1351;DHT22;669;50.206;9.998;2023-12-22T00:51:10;3.60;37.50
1351;DHT22;669;50.206;9.998;2023-12-22T00:53:38;3.60;38.60
1351;DHT22;669;50.206;9.998;2023-12-22T00:56:08;3.60;39.00
1351;DHT22;669;50.206;9.998;2023-12-22T00:58:35;3.60;39.40
1351;DHT22;669;50.206;9.998;2023-12-22T01:01:03;3.60;39.80
1351;DHT22;669;50.206;9.998;2023-12-22T01:03:31;3.60;38.80
1351;DHT22;669;50.206;9.998;2023-12-22T01:06:00;3.70;38.50
1351;DHT22;669;50.206;9.998;2023-12-22T01:08:28;3.70;39.00
1351;DHT22;669;50.206;9.998;2023-12-22T01:10:56;3.70;39.00
1351;DHT22;669;50.206;9.998;2023-12-22T01:13:25;3.60;39.40
1351;DHT22;669;50.206;9.998;2023-12-22T01:15:53;3.60;39.90
1351;DHT22;669;50.206;9.998;2023-12-22T01:18:21;3.60;39.70
1351;DHT22;669;50.206;9.998;2023-12-22T01:20:51;3.60;40.20
1351;DHT22;669;50.206;9.998;2023-12-22T01:23:19;3.60;40.40
1351;DHT22;669;50.206;9.998;2023-12-22T01:25:47;3.60;40.10
1351;DHT22;669;50.206;9.998;2023-12-22T01:28:15;3.60;39.60
1351;DHT22;669;50.206;9.998;2023-12-22T01:30:44;3.70;39.70
1351;DHT22;669;50.206;9.998;2023-12-22T01:33:12;3.70;40.30
1351;DHT22;669;50.206;9.998;2023-12-22T01:35:40;3.70;41.10
1351;DHT22;669;50.206;9.998;2023-12-22T01:38:08;3.70;41.10
1351;DHT22;669;50.206;9.998;2023-12-22T01:40:36;3.70;41.70
1351;DHT22;669;50.206;9.998;2023-12-22T01:43:04;3.70;41.60
1351;DHT22;669;50.206;9.998;2023-12-22T01:45:32;3.70;42.00
1351;DHT22;669;50.206;9.998;2023-12-22T01:48:02;3.70;42.50
1351;DHT22;669;50.206;9.998;2023-12-22T01:50:31;3.70;41.60
1351;DHT22;669;50.206;9.998;2023-12-22T01:52:59;3.70;40.60
1351;DHT22;669;50.206;9.998;2023-12-22T01:55:27;3.70;41.60
1351;DHT22;669;50.206;9.998;2023-12-22T01:57:55;3.60;41.50
1351;DHT22;669;50.206;9.998;2023-12-22T02:00:23;3.60;42.80
1351;DHT22;669;50.206;9.998;2023-12-22T02:02:52;3.60;43.10
1351;DHT22;669;50.206;9.998;2023-12-22T02:05:22;3.50;42.60
1351;DHT22;669;50.206;9.998;2023-12-22T02:07:50;3.50;42.30
1351;DHT22;669;50.206;9.998;2023-12-22T02:10:18;3.40;42.20
1351;DHT22;669;50.206;9.998;2023-12-22T02:12:46;3.40;42.10
1351;DHT22;669;50.206;9.998;2023-12-22T02:15:14;3.40;41.40
1351;DHT22;669;50.206;9.998;2023-12-22T02:17:46;3.40;40.70
1351;DHT22;669;50.206;9.998;2023-12-22T02:20:16;3.40;40.80
1351;DHT22;669;50.206;9.998;2023-12-22T02:22:51;3.40;39.90
1351;DHT22;669;50.206;9.998;2023-12-22T02:25:19;3.40;39.00
1351;DHT22;669;50.206;9.998;2023-12-22T02:27:49;3.40;39.50
1351;DHT22;669;50.206;9.998;2023-12-22T02:30:24;3.40;37.60
1351;DHT22;669;50.206;9.998;2023-12-22T02:32:56;3.40;37.50
1351;DHT22;669;50.206;9.998;2023-12-22T02:35:29;3.40;37.60
1351;DHT22;669;50.206;9.998;2023-12-22T02:38:00;3.40;37.40
1351;DHT22;669;50.206;9.998;2023-12-22T02:40:30;3.40;36.80
1351;DHT22;669;50.206;9.998;2023-12-22T02:42:58;3.40;37.70
1351;DHT22;669;50.206;9.998;2023-12-22T02:45:27;3.30;37.10
1351;DHT22;669;50.206;9.998;2023-12-22T02:47:57;3.30;36.60
1351;DHT22;669;50.206;9.998;2023-12-22T02:50:25;3.20;37.00
1351;DHT22;669;50.206;9.998;2023-12-22T02:52:52;3.30;36.60
1351;DHT22;669;50.206;9.998;2023-12-22T02:55:22;3.20;37.50
1351;DHT22;669;50.206;9.998;2023-12-22T02:57:50;3.20;37.90
1351;DHT22;669;50.206;9.998;2023-12-22T03:00:18;3.20;38.40
1351;DHT22;669;50.206;9.998;2023-12-22T03:02:46;3.20;38.10
1351;DHT22;669;50.206;9.998;2023-12-22T03:05:14;3.20;37.00
1351;DHT22;669;50.206;9.998;2023-12-22T03:07:42;3.20;36.60
1351;DHT22;669;50.206;9.998;2023-12-22T03:10:10;3.30;36.60
1351;DHT22;669;50.206;9.998;2023-12-22T03:12:39;3.30;35.20
1351;DHT22;669;50.206;9.998;2023-12-22T03:15:09;3.30;35.40
1351;DHT22;669;50.206;9.998;2023-12-22T03:17:37;3.30;36.10
1351;DHT22;669;50.206;9.998;2023-12-22T03:20:05;3.30;33.60
1351;DHT22;669;50.206;9.998;2023-12-22T03:22:33;3.40;33.60
1351;DHT22;669;50.206;9.998;2023-12-22T03:25:01;3.40;34.10
1351;DHT22;669;50.206;9.998;2023-12-22T03:27:29;3.40;32.60
1351;DHT22;669;50.206;9.998;2023-12-22T03:29:59;3.40;32.80
1351;DHT22;669;50.206;9.998;2023-12-22T03:32:28;3.40;32.50
1351;DHT22;669;50.206;9.998;2023-12-22T03:34:56;3.40;33.50
1351;DHT22;669;50.206;9.998;2023-12-22T03:37:24;3.30;32.70
1351;DHT22;669;50.206;9.998;2023-12-22T03:39:52;3.30;33.80
1351;DHT22;669;50.206;9.998;2023-12-22T03:42:20;3.30;33.20
1351;DHT22;669;50.206;9.998;2023-12-22T03:44:48;3.30;31.80
1351;DHT22;669;50.206;9.998;2023-12-22T03:47:17;3.30;31.80
1351;DHT22;669;50.206;9.998;2023-12-22T03:49:44;3.40;31.30
1351;DHT22;669;50.206;9.998;2023-12-22T03:52:12;3.40;31.00
1351;DHT22;669;50.206;9.998;2023-12-22T03:54:41;3.40;31.20
1351;DHT22;669;50.206;9.998;2023-12-22T03:57:09;3.40;31.20
1351;DHT22;669;50.206;9.998;2023-12-22T03:59:36;3.40;30.60
1351;DHT22;669;50.206;9.998;2023-12-22T04:02:04;3.40;31.10
1351;DHT22;669;50.206;9.998;2023-12-22T04:04:37;3.40;31.40
1351;DHT22;669;50.206;9.998;2023-12-22T04:07:05;3.30;31.60
1351;DHT22;669;50.206;9.998;2023-12-22T04:09:33;3.30;31.80
1351;DHT22;669;50.206;9.998;2023-12-22T04:12:01;3.30;31.80
1351;DHT22;669;50.206;9.998;2023-12-22T04:14:30;3.30;33.00
1351;DHT22;669;50.206;9.998;2023-12-22T04:16:58;3.30;33.70
1351;DHT22;669;50.206;9.998;2023-12-22T04:19:25;3.30;33.10
1351;DHT22;669;50.206;9.998;2023-12-22T04:21:55;3.30;33.20
1351;DHT22;669;50.206;9.998;2023-12-22T04:24:23;3.30;33.40
1351;DHT22;669;50.206;9.998;2023-12-22T04:26:51;3.30;35.40
1351;DHT22;669;50.206;9.998;2023-12-22T04:29:19;3.20;34.80
1351;DHT22;669;50.206;9.998;2023-12-22T04:31:47;3.20;34.60
1351;DHT22;669;50.206;9.998;2023-12-22T04:34:15;3.10;35.20
1351;DHT22;669;50.206;9.998;2023-12-22T04:36:43;3.10;35.30
1351;DHT22;669;50.206;9.998;2023-12-22T04:39:12;3.10;35.80
1351;DHT22;669;50.206;9.998;2023-12-22T04:41:40;3.00;35.80
1351;DHT22;669;50.206;9.998;2023-12-22T04:44:08;3.00;36.30
1351;DHT22;669;50.206;9.998;2023-12-22T04:46:36;3.00;36.60
1351;DHT22;669;50.206;9.998;2023-12-22T04:49:04;2.90;36.20
1351;DHT22;669;50.206;9.998;2023-12-22T04:51:32;2.90;36.30
1351;DHT22;669;50.206;9.998;2023-12-22T04:54:00;2.90;36.20
1351;DHT22;669;50.206;9.998;2023-12-22T04:56:29;2.90;35.80
1351;DHT22;669;50.206;9.998;2023-12-22T04:58:57;2.90;35.20
1351;DHT22;669;50.206;9.998;2023-12-22T05:01:25;2.80;35.70
1351;DHT22;669;50.206;9.998;2023-12-22T05:03:53;2.80;35.60
1351;DHT22;669;50.206;9.998;2023-12-22T05:06:21;2.80;35.90
1351;DHT22;669;50.206;9.998;2023-12-22T05:08:49;2.80;36.20
1351;DHT22;669;50.206;9.998;2023-12-22T05:11:17;2.80;36.20
1351;DHT22;669;50.206;9.998;2023-12-22T05:13:46;2.80;34.60
1351;DHT22;669;50.206;9.998;2023-12-22T05:16:14;2.80;34.00
1351;DHT22;669;50.206;9.998;2023-12-22T05:18:42;2.80;32.90
1351;DHT22;669;50.206;9.998;2023-12-22T05:21:12;2.80;32.70
1351;DHT22;669;50.206;9.998;2023-12-22T05:23:40;2.80;33.80
1351;DHT22;669;50.206;9.998;2023-12-22T05:26:08;2.80;34.10
1351;DHT22;669;50.206;9.998;2023-12-22T05:28:36;2.80;34.10
1351;DHT22;669;50.206;9.998;2023-12-22T05:31:05;2.80;33.30
1351;DHT22;669;50.206;9.998;2023-12-22T05:33:33;2.90;32.40
1351;DHT22;669;50.206;9.998;2023-12-22T05:36:01;2.90;32.70
1351;DHT22;669;50.206;9.998;2023-12-22T05:38:29;2.90;31.30
1351;DHT22;669;50.206;9.998;2023-12-22T05:40:58;2.90;31.40
1351;DHT22;669;50.206;9.998;2023-12-22T05:43:26;2.90;30.60
1351;DHT22;669;50.206;9.998;2023-12-22T05:45:53;2.90;32.00
1351;DHT22;669;50.206;9.998;2023-12-22T05:48:23;2.90;33.40
1351;DHT22;669;50.206;9.998;2023-12-22T05:50:51;2.90;32.90
1351;DHT22;669;50.206;9.998;2023-12-22T05:53:19;2.80;32.90
1351;DHT22;669;50.206;9.998;2023-12-22T05:55:46;2.90;32.50
1351;DHT22;669;50.206;9.998;2023-12-22T05:58:15;2.90;32.60
1351;DHT22;669;50.206;9.998;2023-12-22T06:00:43;2.90;32.10
1351;DHT22;669;50.206;9.998;2023-12-22T06:03:11;3.00;31.70
1351;DHT22;669;50.206;9.998;2023-12-22T06:05:40;3.00;31.90
1351;DHT22;669;50.206;9.998;2023-12-22T06:08:08;3.00;31.40
1351;DHT22;669;50.206;9.998;2023-12-22T06:10:37;3.00;30.90
1351;DHT22;669;50.206;9.998;2023-12-22T06:13:05;3.10;31.10
1351;DHT22;669;50.206;9.998;2023-12-22T06:15:33;3.10;31.00
1351;DHT22;669;50.206;9.998;2023-12-22T06:18:01;3.10;31.20
1351;DHT22;669;50.206;9.998;2023-12-22T06:20:29;3.10;30.90
1351;DHT22;669;50.206;9.998;2023-12-22T06:22:58;3.10;31.00
1351;DHT22;669;50.206;9.998;2023-12-22T06:25:26;3.20;31.70
1351;DHT22;669;50.206;9.998;2023-12-22T06:27:54;3.10;32.60
1351;DHT22;669;50.206;9.998;2023-12-22T06:30:22;3.20;32.70
1351;DHT22;669;50.206;9.998;2023-12-22T06:32:50;3.20;32.70
1351;DHT22;669;50.206;9.998;2023-12-22T06:35:18;3.20;33.70
1351;DHT22;669;50.206;9.998;2023-12-22T06:37:50;3.20;34.60
1351;DHT22;669;50.206;9.998;2023-12-22T06:40:20;3.10;35.70
1351;DHT22;669;50.206;9.998;2023-12-22T06:42:48;3.10;35.60
1351;DHT22;669;50.206;9.998;2023-12-22T06:45:16;3.10;35.40
1351;DHT22;669;50.206;9.998;2023-12-22T06:47:44;3.10;35.60
1351;DHT22;669;50.206;9.998;2023-12-22T06:50:12;3.00;36.80
1351;DHT22;669;50.206;9.998;2023-12-22T06:52:40;3.00;37.20
1351;DHT22;669;50.206;9.998;2023-12-22T06:55:08;3.00;38.10
1351;DHT22;669;50.206;9.998;2023-12-22T06:57:38;3.00;38.80
1351;DHT22;669;50.206;9.998;2023-12-22T07:00:08;2.90;40.20
1351;DHT22;669;50.206;9.998;2023-12-22T07:02:36;2.90;39.20
1351;DHT22;669;50.206;9.998;2023-12-22T07:05:29;3.00;39.80
1351;DHT22;669;50.206;9.998;2023-12-22T07:07:57;3.00;39.90
1351;DHT22;669;50.206;9.998;2023-12-22T07:10:25;2.90;40.10
1351;DHT22;669;50.206;9.998;2023-12-22T07:12:55;3.00;39.70
1351;DHT22;669;50.206;9.998;2023-12-22T07:15:22;3.00;40.40
1351;DHT22;669;50.206;9.998;2023-12-22T07:17:50;3.00;40.10
1351;DHT22;669;50.206;9.998;2023-12-22T07:20:19;3.00;40.30
1351;DHT22;669;50.206;9.998;2023-12-22T07:22:47;3.10;38.60
1351;DHT22;669;50.206;9.998;2023-12-22T07:25:15;3.20;38.80
1351;DHT22;669;50.206;9.998;2023-12-22T07:27:45;3.20;38.50
1351;DHT22;669;50.206;9.998;2023-12-22T07:30:16;3.20;38.10
1351;DHT22;669;50.206;9.998;2023-12-22T07:32:44;3.30;37.20
1351;DHT22;669;50.206;9.998;2023-12-22T07:35:15;3.50;32.90
1351;DHT22;669;50.206;9.998;2023-12-22T07:37:44;3.50;34.80
1351;DHT22;669;50.206;9.998;2023-12-22T07:40:12;3.60;32.40
1351;DHT22;669;50.206;9.998;2023-12-22T07:42:43;3.70;32.80
1351;DHT22;669;50.206;9.998;2023-12-22T07:45:11;3.70;31.60
1351;DHT22;669;50.206;9.998;2023-12-22T07:47:40;3.80;30.20
1351;DHT22;669;50.206;9.998;2023-12-22T07:50:08;3.80;30.10
1351;DHT22;669;50.206;9.998;2023-12-22T07:52:36;3.80;30.90
1351;DHT22;669;50.206;9.998;2023-12-22T07:55:07;3.80;30.00
1351;DHT22;669;50.206;9.998;2023-12-22T07:57:37;3.90;30.70
1351;DHT22;669;50.206;9.998;2023-12-22T08:00:06;3.90;29.20
1351;DHT22;669;50.206;9.998;2023-12-22T08:02:35;4.00;29.00
1351;DHT22;669;50.206;9.998;2023-12-22T08:05:05;4.00;29.50
1351;DHT22;669;50.206;9.998;2023-12-22T08:07:33;4.00;28.80
1351;DHT22;669;50.206;9.998;2023-12-22T08:10:01;4.00;28.20
1351;DHT22;669;50.206;9.998;2023-12-22T08:12:29;4.10;28.30
1351;DHT22;669;50.206;9.998;2023-12-22T08:14:58;4.10;28.30
1351;DHT22;669;50.206;9.998;2023-12-22T08:17:27;4.10;28.30
1351;DHT22;669;50.206;9.998;2023-12-22T08:19:55;4.10;29.50
1351;DHT22;669;50.206;9.998;2023-12-22T08:22:37;4.10;29.00
1351;DHT22;669;50.206;9.998;2023-12-22T08:25:11;4.10;29.70
1351;DHT22;669;50.206;9.998;2023-12-22T08:27:40;4.10;28.60
1351;DHT22;669;50.206;9.998;2023-12-22T08:30:09;4.20;28.30
1351;DHT22;669;50.206;9.998;2023-12-22T08:32:37;4.20;29.20
1351;DHT22;669;50.206;9.998;2023-12-22T08:35:06;4.20;28.30
1351;DHT22;669;50.206;9.998;2023-12-22T08:37:36;4.30;28.30
1351;DHT22;669;50.206;9.998;2023-12-22T08:40:06;4.30;29.00
1351;DHT22;669;50.206;9.998;2023-12-22T08:42:34;4.30;28.40
1351;DHT22;669;50.206;9.998;2023-12-22T08:45:02;4.30;28.40
1351;DHT22;669;50.206;9.998;2023-12-22T08:47:32;4.40;28.40
1351;DHT22;669;50.206;9.998;2023-12-22T08:50:00;4.50;27.40
1351;DHT22;669;50.206;9.998;2023-12-22T08:52:30;4.50;27.30
1351;DHT22;669;50.206;9.998;2023-12-22T08:55:00;4.60;27.80
1351;DHT22;669;50.206;9.998;2023-12-22T08:57:28;4.70;26.10
1351;DHT22;669;50.206;9.998;2023-12-22T08:59:56;4.70;24.60
1351;DHT22;669;50.206;9.998;2023-12-22T09:02:24;4.70;24.40
1351;DHT22;669;50.206;9.998;2023-12-22T09:04:53;4.70;24.60
1351;DHT22;669;50.206;9.998;2023-12-22T09:07:21;4.70;25.20
1351;DHT22;669;50.206;9.998;2023-12-22T09:09:49;4.70;25.40
1351;DHT22;669;50.206;9.998;2023-12-22T09:12:18;4.80;24.90
1351;DHT22;669;50.206;9.998;2023-12-22T09:14:46;4.90;23.40
1351;DHT22;669;50.206;9.998;2023-12-22T09:17:14;5.00;22.10
1351;DHT22;669;50.206;9.998;2023-12-22T09:19:43;5.00;23.60
1351;DHT22;669;50.206;9.998;2023-12-22T09:22:11;5.10;23.00
1351;DHT22;669;50.206;9.998;2023-12-22T09:24:38;5.20;24.30
1351;DHT22;669;50.206;9.998;2023-12-22T09:27:06;5.20;24.40
1351;DHT22;669;50.206;9.998;2023-12-22T09:29:37;5.40;21.50
1351;DHT22;669;50.206;9.998;2023-12-22T09:32:05;5.40;21.10
1351;DHT22;669;50.206;9.998;2023-12-22T09:34:34;5.30;21.40
1351;DHT22;669;50.206;9.998;2023-12-22T09:37:02;5.20;21.70
1351;DHT22;669;50.206;9.998;2023-12-22T09:39:30;5.20;22.00
1351;DHT22;669;50.206;9.998;2023-12-22T09:41:58;5.10;22.70
1351;DHT22;669;50.206;9.998;2023-12-22T09:44:32;5.10;23.60
1351;DHT22;669;50.206;9.998;2023-12-22T09:47:04;5.00;25.10
1351;DHT22;669;50.206;9.998;2023-12-22T09:49:33;5.00;25.50
1351;DHT22;669;50.206;9.998;2023-12-22T09:52:02;4.90;26.70
1351;DHT22;669;50.206;9.998;2023-12-22T09:54:31;4.90;27.90
1351;DHT22;669;50.206;9.998;2023-12-22T09:57:00;4.80;28.30
1351;DHT22;669;50.206;9.998;2023-12-22T09:59:46;4.80;28.70
1351;DHT22;669;50.206;9.998;2023-12-22T10:02:16;4.80;29.70
1351;DHT22;669;50.206;9.998;2023-12-22T10:04:45;4.70;31.90
1351;DHT22;669;50.206;9.998;2023-12-22T10:07:15;4.80;34.10
1351;DHT22;669;50.206;9.998;2023-12-22T10:09:44;4.80;36.10
1351;DHT22;669;50.206;9.998;2023-12-22T10:12:14;4.80;34.80
1351;DHT22;669;50.206;9.998;2023-12-22T10:14:43;4.80;36.40
1351;DHT22;669;50.206;9.998;2023-12-22T10:17:11;4.70;37.20
1351;DHT22;669;50.206;9.998;2023-12-22T10:19:40;4.70;37.70
1351;DHT22;669;50.206;9.998;2023-12-22T10:22:08;4.70;38.70
1351;DHT22;669;50.206;9.998;2023-12-22T10:24:37;4.70;39.40
1351;DHT22;669;50.206;9.998;2023-12-22T10:27:05;4.70;41.60
1351;DHT22;669;50.206;9.998;2023-12-22T10:29:33;4.70;43.40
1351;DHT22;669;50.206;9.998;2023-12-22T10:32:01;4.80;44.40
1351;DHT22;669;50.206;9.998;2023-12-22T10:34:33;4.80;44.50
1351;DHT22;669;50.206;9.998;2023-12-22T10:37:04;4.90;44.80
1351;DHT22;669;50.206;9.998;2023-12-22T10:39:32;4.90;44.80
1351;DHT22;669;50.206;9.998;2023-12-22T10:42:00;5.00;42.80
1351;DHT22;669;50.206;9.998;2023-12-22T10:44:29;5.00;43.10
1351;DHT22;669;50.206;9.998;2023-12-22T10:46:57;5.00;42.30
1351;DHT22;669;50.206;9.998;2023-12-22T10:49:26;5.10;42.10
1351;DHT22;669;50.206;9.998;2023-12-22T10:51:54;5.20;40.20
1351;DHT22;669;50.206;9.998;2023-12-22T10:54:24;5.20;39.90
1351;DHT22;669;50.206;9.998;2023-12-22T10:56:52;5.20;39.30
1351;DHT22;669;50.206;9.998;2023-12-22T10:59:23;5.30;38.20
1351;DHT22;669;50.206;9.998;2023-12-22T11:01:53;5.20;37.30
1351;DHT22;669;50.206;9.998;2023-12-22T11:04:22;5.30;37.80
1351;DHT22;669;50.206;9.998;2023-12-22T11:06:57;5.30;38.60
1351;DHT22;669;50.206;9.998;2023-12-22T11:09:26;5.30;39.20
1351;DHT22;669;50.206;9.998;2023-12-22T11:11:57;5.40;38.20
1351;DHT22;669;50.206;9.998;2023-12-22T11:14:26;5.40;37.70
1351;DHT22;669;50.206;9.998;2023-12-22T11:16:56;5.40;36.90
1351;DHT22;669;50.206;9.998;2023-12-22T11:19:27;5.40;35.70
1351;DHT22;669;50.206;9.998;2023-12-22T11:21:57;5.40;35.80
1351;DHT22;669;50.206;9.998;2023-12-22T11:24:28;5.40;37.90
1351;DHT22;669;50.206;9.998;2023-12-22T11:26:58;5.40;38.30
1351;DHT22;669;50.206;9.998;2023-12-22T11:29:27;5.50;36.80
1351;DHT22;669;50.206;9.998;2023-12-22T11:31:57;5.40;37.10
1351;DHT22;669;50.206;9.998;2023-12-22T11:34:28;5.40;38.30
1351;DHT22;669;50.206;9.998;2023-12-22T11:36:57;5.50;38.40
1351;DHT22;669;50.206;9.998;2023-12-22T11:39:27;5.50;38.10
1351;DHT22;669;50.206;9.998;2023-12-22T11:41:56;5.50;37.70
1351;DHT22;669;50.206;9.998;2023-12-22T11:44:25;5.60;38.10
1351;DHT22;669;50.206;9.998;2023-12-22T11:47:03;5.50;39.00
1351;DHT22;669;50.206;9.998;2023-12-22T11:49:32;5.50;40.00
1351;DHT22;669;50.206;9.998;2023-12-22T11:52:09;5.50;40.80
1351;DHT22;669;50.206;9.998;2023-12-22T11:54:46;5.40;42.00
1351;DHT22;669;50.206;9.998;2023-12-22T11:57:29;5.40;43.00
1351;DHT22;669;50.206;9.998;2023-12-22T11:59:58;5.40;45.60
1351;DHT22;669;50.206;9.998;2023-12-22T12:02:29;5.40;45.00
1351;DHT22;669;50.206;9.998;2023-12-22T12:04:58;5.40;46.20
1351;DHT22;669;50.206;9.998;2023-12-22T12:07:37;5.40;47.20
1351;DHT22;669;50.206;9.998;2023-12-22T12:10:07;5.40;47.60
1351;DHT22;669;50.206;9.998;2023-12-22T12:12:35;5.40;47.20
1351;DHT22;669;50.206;9.998;2023-12-22T12:15:09;5.40;47.60
1351;DHT22;669;50.206;9.998;2023-12-22T12:17:38;5.40;48.40
1351;DHT22;669;50.206;9.998;2023-12-22T12:20:08;5.30;48.90
1351;DHT22;669;50.206;9.998;2023-12-22T12:22:36;5.30;49.50
1351;DHT22;669;50.206;9.998;2023-12-22T12:25:10;5.30;50.00
1351;DHT22;669;50.206;9.998;2023-12-22T12:28:00;5.30;50.40
1351;DHT22;669;50.206;9.998;2023-12-22T12:30:29;5.30;50.70
1351;DHT22;669;50.206;9.998;2023-12-22T12:32:59;5.40;51.50
1351;DHT22;669;50.206;9.998;2023-12-22T12:35:30;5.40;51.60
1351;DHT22;669;50.206;9.998;2023-12-22T12:37:59;5.40;52.20
1351;DHT22;669;50.206;9.998;2023-12-22T12:40:28;5.40;52.20
1351;DHT22;669;50.206;9.998;2023-12-22T12:42:59;5.40;52.10
1351;DHT22;669;50.206;9.998;2023-12-22T12:45:28;5.40;53.00
1351;DHT22;669;50.206;9.998;2023-12-22T12:47:56;5.50;52.80
1351;DHT22;669;50.206;9.998;2023-12-22T12:50:28;5.50;52.90
1351;DHT22;669;50.206;9.998;2023-12-22T12:52:57;5.60;53.10
1351;DHT22;669;50.206;9.998;2023-12-22T12:55:25;5.70;53.20
1351;DHT22;669;50.206;9.998;2023-12-22T12:57:56;5.70;53.30
1351;DHT22;669;50.206;9.998;2023-12-22T13:00:24;5.70;53.20
1351;DHT22;669;50.206;9.998;2023-12-22T13:02:53;5.80;53.20
1351;DHT22;669;50.206;9.998;2023-12-22T13:05:23;5.80;53.00
1351;DHT22;669;50.206;9.998;2023-12-22T13:07:51;5.80;52.80
1351;DHT22;669;50.206;9.998;2023-12-22T13:10:20;5.80;52.80
1351;DHT22;669;50.206;9.998;2023-12-22T13:12:50;5.80;52.80
1351;DHT22;669;50.206;9.998;2023-12-22T13:15:22;5.80;52.90
1351;DHT22;669;50.206;9.998;2023-12-22T13:17:50;5.80;52.80
1351;DHT22;669;50.206;9.998;2023-12-22T13:20:19;5.80;52.80
1351;DHT22;669;50.206;9.998;2023-12-22T13:22:47;5.80;53.00
1351;DHT22;669;50.206;9.998;2023-12-22T13:25:16;5.80;53.80
1351;DHT22;669;50.206;9.998;2023-12-22T13:27:44;5.80;52.40
1351;DHT22;669;50.206;9.998;2023-12-22T13:30:14;5.80;52.40
1351;DHT22;669;50.206;9.998;2023-12-22T13:32:43;5.80;52.20
1351;DHT22;669;50.206;9.998;2023-12-22T13:35:11;5.80;51.70
1351;DHT22;669;50.206;9.998;2023-12-22T13:37:42;5.80;51.80
1351;DHT22;669;50.206;9.998;2023-12-22T13:40:12;5.80;52.80
1351;DHT22;669;50.206;9.998;2023-12-22T13:42:40;5.80;52.40
1351;DHT22;669;50.206;9.998;2023-12-22T13:45:10;5.90;52.10
1351;DHT22;669;50.206;9.998;2023-12-22T13:47:40;5.90;51.40
1351;DHT22;669;50.206;9.998;2023-12-22T13:50:14;5.90;51.20
1351;DHT22;669;50.206;9.998;2023-12-22T13:52:43;5.90;49.20
1351;DHT22;669;50.206;9.998;2023-12-22T13:55:11;5.80;49.60
1351;DHT22;669;50.206;9.998;2023-12-22T13:57:40;5.80;49.80
1351;DHT22;669;50.206;9.998;2023-12-22T14:00:26;5.80;49.40
1351;DHT22;669;50.206;9.998;2023-12-22T14:02:55;5.80;49.80
1351;DHT22;669;50.206;9.998;2023-12-22T14:05:24;5.80;50.00
1351;DHT22;669;50.206;9.998;2023-12-22T14:07:58;5.80;49.70
1351;DHT22;669;50.206;9.998;2023-12-22T14:10:26;5.80;49.60
1351;DHT22;669;50.206;9.998;2023-12-22T14:12:53;5.80;48.60
1351;DHT22;669;50.206;9.998;2023-12-22T14:15:21;5.80;48.00
1351;DHT22;669;50.206;9.998;2023-12-22T14:17:56;5.80;47.90
1351;DHT22;669;50.206;9.998;2023-12-22T14:20:26;5.80;46.80
1351;DHT22;669;50.206;9.998;2023-12-22T14:22:54;5.80;44.90
1351;DHT22;669;50.206;9.998;2023-12-22T14:25:22;5.90;44.80
1351;DHT22;669;50.206;9.998;2023-12-22T14:27:52;5.80;44.90
1351;DHT22;669;50.206;9.998;2023-12-22T14:30:23;5.80;45.00
1351;DHT22;669;50.206;9.998;2023-12-22T14:32:51;5.90;44.80
1351;DHT22;669;50.206;9.998;2023-12-22T14:35:19;5.90;45.50
1351;DHT22;669;50.206;9.998;2023-12-22T14:37:49;5.90;46.10
1351;DHT22;669;50.206;9.998;2023-12-22T14:40:17;5.90;46.50
1351;DHT22;669;50.206;9.998;2023-12-22T14:42:46;5.90;46.90
1351;DHT22;669;50.206;9.998;2023-12-22T14:45:14;5.90;47.70
1351;DHT22;669;50.206;9.998;2023-12-22T14:47:42;5.90;48.00
1351;DHT22;669;50.206;9.998;2023-12-22T14:50:10;6.00;49.30
1351;DHT22;669;50.206;9.998;2023-12-22T14:52:38;6.10;49.00
1351;DHT22;669;50.206;9.998;2023-12-22T14:55:08;6.10;48.60
1351;DHT22;669;50.206;9.998;2023-12-22T14:57:36;6.20;48.90
1351;DHT22;669;50.206;9.998;2023-12-22T15:00:05;6.20;49.70
1351;DHT22;669;50.206;9.998;2023-12-22T15:02:33;6.30;49.30
1351;DHT22;669;50.206;9.998;2023-12-22T15:05:01;6.30;49.30
1351;DHT22;669;50.206;9.998;2023-12-22T15:07:30;6.30;48.30
1351;DHT22;669;50.206;9.998;2023-12-22T15:09:59;6.40;48.40
1351;DHT22;669;50.206;9.998;2023-12-22T15:12:31;6.40;48.40
1351;DHT22;669;50.206;9.998;2023-12-22T15:15:03;6.40;48.40
1351;DHT22;669;50.206;9.998;2023-12-22T15:17:31;6.40;48.40
1351;DHT22;669;50.206;9.998;2023-12-22T15:20:01;6.50;48.50
1351;DHT22;669;50.206;9.998;2023-12-22T15:22:35;6.50;46.80
1351;DHT22;669;50.206;9.998;2023-12-22T15:25:04;6.50;46.40
1351;DHT22;669;50.206;9.998;2023-12-22T15:27:33;6.40;46.10
1351;DHT22;669;50.206;9.998;2023-12-22T15:30:04;6.40;46.70
1351;DHT22;669;50.206;9.998;2023-12-22T15:32:32;6.30;47.00
1351;DHT22;669;50.206;9.998;2023-12-22T15:35:00;6.30;47.50
1351;DHT22;669;50.206;9.998;2023-12-22T15:37:28;6.20;48.20
1351;DHT22;669;50.206;9.998;2023-12-22T15:40:00;6.20;48.30
1351;DHT22;669;50.206;9.998;2023-12-22T15:42:29;6.20;49.20
1351;DHT22;669;50.206;9.998;2023-12-22T15:44:58;6.20;49.90
1351;DHT22;669;50.206;9.998;2023-12-22T15:47:26;6.30;49.90
1351;DHT22;669;50.206;9.998;2023-12-22T15:49:54;6.40;47.10
1351;DHT22;669;50.206;9.998;2023-12-22T15:52:22;6.40;46.10
1351;DHT22;669;50.206;9.998;2023-12-22T15:54:49;6.40;45.80
1351;DHT22;669;50.206;9.998;2023-12-22T15:57:18;6.40;47.30
1351;DHT22;669;50.206;9.998;2023-12-22T15:59:45;6.40;48.40
1351;DHT22;669;50.206;9.998;2023-12-22T16:02:15;6.50;48.50
1351;DHT22;669;50.206;9.998;2023-12-22T16:04:43;6.50;49.80
1351;DHT22;669;50.206;9.998;2023-12-22T16:07:12;6.50;49.90
1351;DHT22;669;50.206;9.998;2023-12-22T16:09:40;6.50;50.60
1351;DHT22;669;50.206;9.998;2023-12-22T16:12:08;6.50;51.00
1351;DHT22;669;50.206;9.998;2023-12-22T16:14:35;6.50;50.30
1351;DHT22;669;50.206;9.998;2023-12-22T16:17:03;6.50;49.20
1351;DHT22;669;50.206;9.998;2023-12-22T16:19:37;6.50;48.40
1351;DHT22;669;50.206;9.998;2023-12-22T16:22:05;6.50;48.50
1351;DHT22;669;50.206;9.998;2023-12-22T16:24:33;6.50;49.00
1351;DHT22;669;50.206;9.998;2023-12-22T16:27:01;6.50;49.00
1351;DHT22;669;50.206;9.998;2023-12-22T16:29:29;6.50;48.50
1351;DHT22;669;50.206;9.998;2023-12-22T16:31:57;6.60;48.50
1351;DHT22;669;50.206;9.998;2023-12-22T16:34:25;6.60;48.50
1351;DHT22;669;50.206;9.998;2023-12-22T16:36:54;6.60;48.40
1351;DHT22;669;50.206;9.998;2023-12-22T16:39:23;6.70;47.00
1351;DHT22;669;50.206;9.998;2023-12-22T16:41:51;6.70;48.00
1351;DHT22;669;50.206;9.998;2023-12-22T16:44:19;6.80;47.60
1351;DHT22;669;50.206;9.998;2023-12-22T16:46:48;6.80;48.70